createdAt,value
2023-05-02T00:00:57.086Z,13.60
2023-05-02T00:01:57.153Z,13.59
2023-05-02T00:02:57.273Z,13.57
2023-05-02T00:03:57.254Z,13.60
2023-05-02T00:04:57.176Z,13.59
2023-05-02T00:05:57.215Z,13.57
2023-05-02T00:06:57.368Z,13.55
2023-05-02T00:07:57.252Z,13.57
2023-05-02T00:08:57.279Z,13.52
2023-05-02T00:09:57.294Z,13.64
2023-05-02T00:10:57.320Z,13.63
2023-05-02T00:11:57.345Z,13.60
2023-05-02T00:12:57.369Z,13.57
2023-05-02T00:13:57.392Z,13.54
2023-05-02T00:14:57.416Z,13.42
2023-05-02T00:15:57.438Z,13.51
2023-05-02T00:16:57.533Z,13.45
2023-05-02T00:17:57.511Z,13.32
2023-05-02T00:18:57.511Z,13.51
2023-05-02T00:19:57.901Z,13.42
2023-05-02T00:20:57.563Z,13.45
2023-05-02T00:21:57.595Z,13.48
2023-05-02T00:22:57.600Z,13.29
2023-05-02T00:23:57.624Z,13.41
2023-05-02T00:24:57.657Z,13.42
2023-05-02T00:25:57.670Z,13.42
2023-05-02T00:26:57.704Z,13.30
2023-05-02T00:27:57.719Z,13.32
2023-05-02T00:28:57.746Z,13.28
2023-05-02T00:29:58.289Z,13.23
2023-05-02T00:30:57.861Z,13.30
2023-05-02T00:31:57.824Z,13.20
2023-05-02T00:32:57.889Z,13.32
2023-05-02T00:33:57.859Z,13.29
2023-05-02T00:34:57.898Z,13.15
2023-05-02T00:35:57.913Z,13.20
2023-05-02T00:36:57.933Z,13.22
2023-05-02T00:37:57.955Z,13.20
2023-05-02T00:38:57.990Z,13.12
2023-05-02T00:39:58.170Z,13.19
2023-05-02T00:40:58.151Z,13.14
2023-05-02T00:41:58.141Z,13.14
2023-05-02T00:42:58.136Z,13.10
2023-05-02T00:43:58.235Z,13.14
2023-05-02T00:44:58.232Z,13.14
2023-05-02T00:45:58.222Z,13.04
2023-05-02T00:46:58.227Z,13.08
2023-05-02T00:47:58.282Z,13.05
2023-05-02T00:48:58.222Z,13.03
2023-05-02T00:49:58.617Z,13.11
2023-05-02T00:50:58.261Z,13.08
2023-05-02T00:51:58.325Z,13.03
2023-05-02T00:52:58.313Z,13.04
2023-05-02T00:53:58.357Z,13.07
2023-05-02T00:54:58.364Z,12.93
2023-05-02T00:55:58.378Z,12.93
2023-05-02T00:56:58.415Z,12.90
2023-05-02T00:57:58.425Z,13.01
2023-05-02T00:58:58.463Z,12.93
2023-05-02T00:59:58.745Z,12.90
2023-05-02T01:00:58.495Z,12.95
2023-05-02T01:01:58.532Z,12.93
2023-05-02T01:02:58.597Z,12.92
2023-05-02T01:03:58.687Z,12.89
2023-05-02T01:04:58.588Z,12.87
2023-05-02T01:05:58.654Z,12.93
2023-05-02T01:06:58.650Z,12.87
2023-05-02T01:07:58.670Z,12.85
2023-05-02T01:08:58.677Z,12.78
2023-05-02T01:09:59.182Z,12.79
2023-05-02T01:10:58.738Z,12.85
2023-05-02T01:11:58.743Z,12.82
2023-05-02T01:12:58.767Z,12.75
2023-05-02T01:13:58.791Z,12.82
2023-05-02T01:14:58.819Z,12.77
2023-05-02T01:15:58.878Z,12.82
2023-05-02T01:16:58.862Z,12.82
2023-05-02T01:17:58.943Z,12.74
2023-05-02T01:18:58.918Z,12.77
2023-05-02T01:19:59.147Z,12.75
2023-05-02T01:20:58.954Z,12.75
2023-05-02T01:21:58.974Z,12.74
2023-05-02T01:22:59.010Z,12.77
2023-05-02T01:23:59.024Z,12.79
2023-05-02T01:24:59.052Z,12.75
2023-05-02T01:25:59.088Z,12.71
2023-05-02T01:26:59.100Z,12.68
2023-05-02T01:27:59.119Z,12.71
2023-05-02T01:28:59.141Z,12.68
2023-05-02T01:29:59.393Z,12.78
2023-05-02T01:30:59.186Z,12.78
2023-05-02T01:31:59.281Z,12.77
2023-05-02T01:32:59.479Z,12.78
2023-05-02T01:33:59.274Z,12.78
2023-05-02T01:34:59.280Z,12.70
2023-05-02T01:35:59.298Z,12.67
2023-05-02T01:36:59.321Z,12.65
2023-05-02T01:37:59.345Z,12.60
2023-05-02T01:38:59.373Z,12.67
2023-05-02T01:39:59.679Z,12.67
2023-05-02T01:40:59.444Z,12.64
2023-05-02T01:41:59.437Z,12.56
2023-05-02T01:42:59.468Z,12.62
2023-05-02T01:43:59.492Z,12.54
2023-05-02T01:44:59.507Z,12.56
2023-05-02T01:45:59.534Z,12.54
2023-05-02T01:46:59.565Z,12.46
2023-05-02T01:47:59.587Z,12.45
2023-05-02T01:48:59.601Z,12.42
2023-05-02T01:49:59.853Z,12.46
2023-05-02T01:50:59.680Z,12.38
2023-05-02T01:51:59.672Z,12.35
2023-05-02T01:52:59.690Z,12.31
2023-05-02T01:53:59.720Z,12.34
2023-05-02T01:54:59.740Z,12.31
2023-05-02T01:55:59.768Z,12.34
2023-05-02T01:56:59.791Z,12.31
2023-05-02T01:57:59.811Z,12.28
2023-05-02T01:58:59.866Z,12.34
2023-05-02T02:00:00.210Z,12.32
2023-05-02T02:00:59.909Z,12.31
2023-05-02T02:01:59.899Z,12.21
2023-05-02T02:03:00.027Z,12.23
2023-05-02T02:04:00.102Z,12.20
2023-05-02T02:04:59.969Z,12.31
2023-05-02T02:06:00.013Z,12.28
2023-05-02T02:07:00.033Z,12.21
2023-05-02T02:08:00.038Z,12.28
2023-05-02T02:09:00.075Z,12.21
2023-05-02T02:10:00.335Z,12.20
2023-05-02T02:11:00.155Z,12.32
2023-05-02T02:12:00.130Z,12.24
2023-05-02T02:13:00.161Z,12.32
2023-05-02T02:14:00.173Z,12.28
2023-05-02T02:15:00.199Z,12.27
2023-05-02T02:16:00.213Z,12.24
2023-05-02T02:17:00.443Z,12.29
2023-05-02T02:18:00.301Z,12.27
2023-05-02T02:19:00.307Z,12.31
2023-05-02T02:20:00.547Z,12.31
2023-05-02T02:21:00.358Z,12.35
2023-05-02T02:22:00.366Z,12.34
2023-05-02T02:23:00.383Z,12.34
2023-05-02T02:24:00.437Z,12.34
2023-05-02T02:25:00.448Z,12.31
2023-05-02T02:26:00.457Z,12.31
2023-05-02T02:27:00.495Z,12.27
2023-05-02T02:28:00.488Z,12.29
2023-05-02T02:29:00.530Z,12.13
2023-05-02T02:30:00.774Z,12.31
2023-05-02T02:31:00.592Z,12.27
2023-05-02T02:32:00.606Z,12.28
2023-05-02T02:33:00.655Z,12.21
2023-05-02T02:34:00.653Z,12.23
2023-05-02T02:35:00.677Z,12.29
2023-05-02T02:36:00.685Z,12.21
2023-05-02T02:37:00.701Z,12.27
2023-05-02T02:38:00.733Z,12.28
2023-05-02T02:39:00.748Z,12.16
2023-05-02T02:40:01.154Z,12.21
2023-05-02T02:41:00.799Z,12.24
2023-05-02T02:42:00.812Z,12.20
2023-05-02T02:43:00.840Z,12.21
2023-05-02T02:44:00.880Z,12.24
2023-05-02T02:45:00.891Z,12.16
2023-05-02T02:46:00.919Z,12.17
2023-05-02T02:47:00.946Z,12.13
2023-05-02T02:48:00.992Z,12.31
2023-05-02T02:49:00.982Z,12.20
2023-05-02T02:50:01.249Z,12.32
2023-05-02T02:51:01.011Z,12.32
2023-05-02T02:52:01.038Z,12.32
2023-05-02T02:53:01.078Z,12.29
2023-05-02T02:54:01.139Z,12.31
2023-05-02T02:55:01.107Z,12.29
2023-05-02T02:56:01.127Z,12.29
2023-05-02T02:57:01.146Z,12.31
2023-05-02T02:58:01.212Z,12.28
2023-05-02T02:59:01.192Z,12.45
2023-05-02T03:00:01.606Z,12.41
2023-05-02T03:01:01.259Z,12.28
2023-05-02T03:02:01.288Z,12.38
2023-05-02T03:03:01.308Z,12.29
2023-05-02T03:04:01.329Z,12.31
2023-05-02T03:05:01.332Z,12.35
2023-05-02T03:06:01.393Z,12.45
2023-05-02T03:07:01.375Z,12.39
2023-05-02T03:08:01.416Z,12.35
2023-05-02T03:09:01.422Z,12.42
2023-05-02T03:10:01.849Z,12.49
2023-05-02T03:11:01.487Z,12.45
2023-05-02T03:12:01.506Z,12.38
2023-05-02T03:13:01.602Z,12.42
2023-05-02T03:14:01.545Z,12.50
2023-05-02T03:15:01.572Z,12.39
2023-05-02T03:16:01.602Z,12.41
2023-05-02T03:17:01.619Z,12.41
2023-05-02T03:18:01.712Z,12.45
2023-05-02T03:19:01.644Z,12.42
2023-05-02T03:20:01.969Z,12.46
2023-05-02T03:21:01.703Z,12.46
2023-05-02T03:22:01.716Z,12.42
2023-05-02T03:23:01.793Z,12.52
2023-05-02T03:24:01.762Z,12.47
2023-05-02T03:25:01.825Z,12.49
2023-05-02T03:26:01.807Z,12.52
2023-05-02T03:27:01.884Z,12.47
2023-05-02T03:28:01.865Z,12.37
2023-05-02T03:29:01.886Z,12.34
2023-05-02T03:30:02.100Z,12.38
2023-05-02T03:31:01.995Z,12.32
2023-05-02T03:32:02.114Z,12.29
2023-05-02T03:33:02.019Z,12.29
2023-05-02T03:34:01.994Z,12.29
2023-05-02T03:35:02.015Z,12.34
2023-05-02T03:36:02.066Z,12.29
2023-05-02T03:37:02.067Z,12.28
2023-05-02T03:38:02.086Z,12.41
2023-05-02T03:39:02.137Z,12.32
2023-05-02T03:40:02.367Z,12.29
2023-05-02T03:41:02.160Z,12.39
2023-05-02T03:42:02.176Z,12.38
2023-05-02T03:43:02.202Z,12.41
2023-05-02T03:44:02.225Z,12.47
2023-05-02T03:45:02.254Z,12.45
2023-05-02T03:46:02.268Z,12.39
2023-05-02T03:47:02.321Z,12.32
2023-05-02T03:48:02.378Z,12.50
2023-05-02T03:49:02.335Z,12.50
2023-05-02T03:50:02.600Z,12.47
2023-05-02T03:51:02.381Z,12.46
2023-05-02T03:52:02.431Z,12.49
2023-05-02T03:53:02.426Z,12.42
2023-05-02T03:54:02.492Z,12.39
2023-05-02T03:55:02.493Z,12.38
2023-05-02T03:56:02.528Z,12.42
2023-05-02T03:57:02.522Z,12.41
2023-05-02T03:58:02.549Z,12.34
2023-05-02T03:59:02.565Z,12.29
2023-05-02T04:00:02.804Z,12.39
2023-05-02T04:01:02.670Z,12.28
2023-05-02T04:02:02.725Z,12.34
2023-05-02T04:03:02.716Z,12.28
2023-05-02T04:04:02.749Z,12.20
2023-05-02T04:05:02.715Z,12.29
2023-05-02T04:06:02.774Z,12.27
2023-05-02T04:07:02.751Z,12.23
2023-05-02T04:08:02.781Z,12.14
2023-05-02T04:09:02.833Z,12.24
2023-05-02T04:10:03.176Z,12.14
2023-05-02T04:11:02.845Z,12.21
2023-05-02T04:12:02.866Z,12.24
2023-05-02T04:13:02.888Z,12.23
2023-05-02T04:14:02.920Z,12.23
2023-05-02T04:15:02.945Z,12.27
2023-05-02T04:16:02.974Z,12.16
2023-05-02T04:17:02.991Z,12.16
2023-05-02T04:18:03.063Z,12.17
2023-05-02T04:19:03.032Z,12.16
2023-05-02T04:20:05.313Z,12.21
2023-05-02T04:21:03.072Z,12.27
2023-05-02T04:22:03.097Z,12.19
2023-05-02T04:23:03.141Z,12.16
2023-05-02T04:24:03.139Z,12.12
2023-05-02T04:25:03.160Z,12.28
2023-05-02T04:26:03.187Z,12.31
2023-05-02T04:27:03.214Z,12.20
2023-05-02T04:28:03.233Z,12.14
2023-05-02T04:29:03.263Z,12.20
2023-05-02T04:30:03.740Z,12.24
2023-05-02T04:31:03.337Z,12.28
2023-05-02T04:32:03.347Z,12.29
2023-05-02T04:33:03.445Z,12.28
2023-05-02T04:34:03.367Z,12.28
2023-05-02T04:35:03.383Z,12.23
2023-05-02T04:36:03.410Z,12.29
2023-05-02T04:37:03.456Z,12.28
2023-05-02T04:38:03.454Z,12.21
2023-05-02T04:39:03.477Z,12.20
2023-05-02T04:40:03.521Z,12.24
2023-05-02T04:41:08.552Z,12.29
2023-05-02T04:42:03.544Z,12.29
2023-05-02T04:43:03.568Z,12.32
2023-05-02T04:44:03.597Z,12.31
2023-05-02T04:45:03.611Z,12.23
2023-05-02T04:46:03.653Z,12.13
2023-05-02T04:47:03.652Z,12.19
2023-05-02T04:48:03.752Z,12.24
2023-05-02T04:49:03.723Z,12.24
2023-05-02T04:50:03.764Z,12.24
2023-05-02T04:51:03.867Z,12.31
2023-05-02T04:52:03.781Z,12.13
2023-05-02T04:53:03.795Z,12.14
2023-05-02T04:54:03.811Z,12.28
2023-05-02T04:55:03.870Z,12.16
2023-05-02T04:56:03.889Z,12.16
2023-05-02T04:57:03.897Z,12.23
2023-05-02T04:58:03.916Z,12.21
2023-05-02T04:59:03.930Z,12.27
2023-05-02T05:00:04.057Z,12.23
2023-05-02T05:01:03.975Z,12.27
2023-05-02T05:02:04.107Z,12.27
2023-05-02T05:03:04.119Z,12.19
2023-05-02T05:04:04.207Z,12.27
2023-05-02T05:05:04.138Z,12.20
2023-05-02T05:06:04.118Z,12.12
2023-05-02T05:07:04.113Z,12.16
2023-05-02T05:08:04.145Z,12.14
2023-05-02T05:09:04.164Z,12.14
2023-05-02T05:10:04.183Z,12.13
2023-05-02T05:11:04.206Z,12.02
2023-05-02T05:12:04.226Z,11.85
2023-05-02T05:13:04.253Z,11.94
2023-05-02T05:14:04.302Z,11.88
2023-05-02T05:15:04.319Z,11.82
2023-05-02T05:16:04.379Z,11.78
2023-05-02T05:17:04.344Z,11.72
2023-05-02T05:18:04.402Z,11.79
2023-05-02T05:19:04.387Z,11.76
2023-05-02T05:20:04.417Z,11.70
2023-05-02T05:21:04.475Z,11.73
2023-05-02T05:22:04.450Z,11.61
2023-05-02T05:23:04.474Z,11.64
2023-05-02T05:24:04.521Z,11.67
2023-05-02T05:25:04.520Z,11.64
2023-05-02T05:26:04.541Z,11.65
2023-05-02T05:27:04.572Z,11.58
2023-05-02T05:28:04.617Z,11.60
2023-05-02T05:29:04.610Z,11.57
2023-05-02T05:30:04.626Z,11.57
2023-05-02T05:31:04.680Z,11.52
2023-05-02T05:32:04.713Z,11.64
2023-05-02T05:33:04.741Z,11.55
2023-05-02T05:34:04.782Z,11.64
2023-05-02T05:35:04.749Z,11.65
2023-05-02T05:36:04.770Z,11.70
2023-05-02T05:37:04.783Z,11.75
2023-05-02T05:38:04.830Z,11.78
2023-05-02T05:39:04.847Z,11.78
2023-05-02T05:40:04.961Z,11.75
2023-05-02T05:41:04.905Z,11.69
2023-05-02T05:42:04.896Z,11.72
2023-05-02T05:43:04.941Z,11.69
2023-05-02T05:44:04.941Z,11.69
2023-05-02T05:45:04.973Z,11.73
2023-05-02T05:46:05.019Z,11.79
2023-05-02T05:47:05.065Z,11.79
2023-05-02T05:48:05.121Z,11.88
2023-05-02T05:49:05.068Z,11.90
2023-05-02T05:50:05.078Z,12.01
2023-05-02T05:51:05.097Z,11.96
2023-05-02T05:52:05.137Z,11.98
2023-05-02T05:53:05.142Z,11.91
2023-05-02T05:54:05.235Z,12.12
2023-05-02T05:55:05.230Z,12.02
2023-05-02T05:56:05.212Z,12.10
2023-05-02T05:57:05.236Z,12.16
2023-05-02T05:58:05.266Z,12.21
2023-05-02T05:59:05.284Z,12.17
2023-05-02T06:00:05.320Z,12.10
2023-05-02T06:01:05.348Z,12.28
2023-05-02T06:02:05.374Z,12.14
2023-05-02T06:03:07.420Z,12.19
2023-05-02T06:04:05.470Z,12.24
2023-05-02T06:05:05.503Z,12.17
2023-05-02T06:06:05.488Z,12.21
2023-05-02T06:07:05.468Z,12.14
2023-05-02T06:08:05.490Z,12.23
2023-05-02T06:09:05.515Z,12.28
2023-05-02T06:10:05.533Z,12.17
2023-05-02T06:11:05.560Z,12.29
2023-05-02T06:12:05.592Z,12.20
2023-05-02T06:13:05.609Z,12.24
2023-05-02T06:14:05.634Z,12.28
2023-05-02T06:15:05.684Z,12.27
2023-05-02T06:16:05.723Z,12.21
2023-05-02T06:17:05.702Z,12.24
2023-05-02T06:18:05.762Z,12.34
2023-05-02T06:19:05.750Z,12.27
2023-05-02T06:20:05.767Z,12.20
2023-05-02T06:21:05.789Z,12.32
2023-05-02T06:22:05.811Z,12.12
2023-05-02T06:23:05.829Z,12.32
2023-05-02T06:24:05.862Z,12.12
2023-05-02T06:25:05.878Z,12.23
2023-05-02T06:26:05.989Z,12.23
2023-05-02T06:27:06.226Z,12.12
2023-05-02T06:28:05.952Z,12.12
2023-05-02T06:29:05.975Z,11.94
2023-05-02T06:30:06.051Z,11.86
2023-05-02T06:31:06.191Z,11.78
2023-05-02T06:32:06.151Z,11.70
2023-05-02T06:33:06.097Z,11.62
2023-05-02T06:34:06.081Z,11.55
2023-05-02T06:35:06.112Z,11.52
2023-05-02T06:36:06.149Z,11.47
2023-05-02T06:37:06.157Z,11.55
2023-05-02T06:38:06.183Z,11.42
2023-05-02T06:39:06.190Z,11.36
2023-05-02T06:40:06.220Z,11.36
2023-05-02T06:41:06.240Z,11.47
2023-05-02T06:42:06.265Z,11.44
2023-05-02T06:43:06.281Z,11.49
2023-05-02T06:44:06.312Z,11.51
2023-05-02T06:45:06.344Z,11.46
2023-05-02T06:46:06.349Z,11.49
2023-05-02T06:47:06.477Z,11.54
2023-05-02T06:48:06.467Z,11.44
2023-05-02T06:49:06.436Z,11.52
2023-05-02T06:50:06.441Z,11.40
2023-05-02T06:51:06.462Z,11.40
2023-05-02T06:52:06.486Z,11.39
2023-05-02T06:53:06.511Z,11.39
2023-05-02T06:54:06.534Z,11.32
2023-05-02T06:55:06.553Z,11.24
2023-05-02T06:56:06.586Z,11.10
2023-05-02T06:57:06.627Z,11.15
2023-05-02T06:58:06.627Z,11.06
2023-05-02T06:59:06.652Z,11.17
2023-05-02T07:00:06.664Z,11.02
2023-05-02T07:01:06.751Z,11.03
2023-05-02T07:02:06.707Z,10.97
2023-05-02T07:03:06.749Z,10.85
2023-05-02T07:04:06.828Z,10.82
2023-05-02T07:05:06.782Z,10.74
2023-05-02T07:06:06.840Z,10.78
2023-05-02T07:07:06.824Z,10.81
2023-05-02T07:08:06.839Z,10.76
2023-05-02T07:09:06.875Z,10.68
2023-05-02T07:10:06.888Z,10.78
2023-05-02T07:11:06.911Z,10.88
2023-05-02T07:12:07.230Z,10.88
2023-05-02T07:13:06.951Z,10.97
2023-05-02T07:14:06.977Z,11.03
2023-05-02T07:15:06.998Z,11.02
2023-05-02T07:16:07.055Z,11.02
2023-05-02T07:17:07.201Z,11.04
2023-05-02T07:18:07.111Z,11.10
2023-05-02T07:19:07.126Z,11.17
2023-05-02T07:20:07.119Z,11.06
2023-05-02T07:21:07.130Z,11.06
2023-05-02T07:22:07.155Z,11.11
2023-05-02T07:23:07.210Z,11.19
2023-05-02T07:24:07.223Z,11.18
2023-05-02T07:25:07.214Z,11.28
2023-05-02T07:26:07.236Z,11.37
2023-05-02T07:27:07.278Z,11.24
2023-05-02T07:28:07.308Z,11.27
2023-05-02T07:29:07.307Z,11.33
2023-05-02T07:30:07.330Z,11.32
2023-05-02T07:31:07.366Z,11.37
2023-05-02T07:32:07.437Z,11.27
2023-05-02T07:33:07.519Z,11.25
2023-05-02T07:34:07.421Z,11.15
2023-05-02T07:35:07.450Z,11.15
2023-05-02T07:36:07.470Z,11.11
2023-05-02T07:37:07.485Z,11.24
2023-05-02T07:38:07.512Z,11.21
2023-05-02T07:39:07.548Z,11.37
2023-05-02T07:40:07.568Z,11.44
2023-05-02T07:41:07.582Z,11.51
2023-05-02T07:42:07.622Z,11.40
2023-05-02T07:43:08.784Z,11.42
2023-05-02T07:44:07.656Z,11.58
2023-05-02T07:45:07.670Z,11.52
2023-05-02T07:46:07.796Z,11.55
2023-05-02T07:47:07.719Z,11.47
2023-05-02T07:48:07.790Z,11.46
2023-05-02T07:49:07.757Z,11.47
2023-05-02T07:50:07.800Z,11.42
2023-05-02T07:51:07.806Z,11.44
2023-05-02T07:52:07.830Z,11.58
2023-05-02T07:53:07.854Z,11.58
2023-05-02T07:54:07.874Z,11.54
2023-05-02T07:55:07.899Z,11.57
2023-05-02T07:56:07.934Z,11.64
2023-05-02T07:57:07.946Z,11.57
2023-05-02T07:58:07.977Z,11.46
2023-05-02T07:59:07.994Z,11.43
2023-05-02T08:00:08.016Z,11.49
2023-05-02T08:01:08.042Z,11.28
2023-05-02T08:02:08.110Z,11.21
2023-05-02T08:03:08.215Z,11.11
2023-05-02T08:04:08.315Z,11.14
2023-05-02T08:05:08.263Z,11.18
2023-05-02T08:06:08.234Z,11.15
2023-05-02T08:07:08.165Z,11.17
2023-05-02T08:08:08.210Z,11.17
2023-05-02T08:09:08.229Z,11.17
2023-05-02T08:10:08.243Z,11.11
2023-05-02T08:11:08.263Z,11.11
2023-05-02T08:12:08.285Z,11.15
2023-05-02T08:13:08.330Z,11.10
2023-05-02T08:14:08.331Z,11.19
2023-05-02T08:15:08.357Z,11.11
2023-05-02T08:16:08.441Z,11.06
2023-05-02T08:17:08.402Z,11.04
2023-05-02T08:18:08.471Z,10.97
2023-05-02T08:19:08.437Z,11.03
2023-05-02T08:20:08.472Z,10.97
2023-05-02T08:21:08.484Z,11.02
2023-05-02T08:22:08.514Z,11.04
2023-05-02T08:23:08.525Z,10.96
2023-05-02T08:24:08.553Z,10.99
2023-05-02T08:25:08.602Z,11.00
2023-05-02T08:26:08.600Z,10.89
2023-05-02T08:27:08.614Z,10.92
2023-05-02T08:28:08.647Z,10.84
2023-05-02T08:29:08.667Z,10.79
2023-05-02T08:30:09.046Z,10.76
2023-05-02T08:31:08.757Z,10.66
2023-05-02T08:32:08.761Z,10.66
2023-05-02T08:33:08.759Z,10.68
2023-05-02T08:34:08.783Z,10.70
2023-05-02T08:35:08.814Z,10.86
2023-05-02T08:36:08.951Z,11.00
2023-05-02T08:37:08.846Z,11.11
2023-05-02T08:38:08.862Z,11.17
2023-05-02T08:39:08.893Z,11.14
2023-05-02T08:40:08.922Z,11.21
2023-05-02T08:41:08.953Z,11.24
2023-05-02T08:42:08.957Z,11.24
2023-05-02T08:43:08.976Z,11.24
2023-05-02T08:44:09.028Z,11.24
2023-05-02T08:45:09.026Z,11.29
2023-05-02T08:46:09.034Z,11.33
2023-05-02T08:47:09.082Z,11.40
2023-05-02T08:48:09.165Z,11.33
2023-05-02T08:49:09.110Z,11.36
2023-05-02T08:50:09.138Z,11.32
2023-05-02T08:51:09.157Z,11.39
2023-05-02T08:52:09.174Z,11.40
2023-05-02T08:53:09.194Z,11.44
2023-05-02T08:54:09.215Z,11.57
2023-05-02T08:55:09.238Z,11.54
2023-05-02T08:56:09.263Z,11.54
2023-05-02T08:57:09.287Z,11.65
2023-05-02T08:58:09.312Z,11.73
2023-05-02T08:59:09.329Z,11.69
2023-05-02T09:00:09.353Z,11.73
2023-05-02T09:01:09.406Z,11.88
2023-05-02T09:02:09.402Z,11.82
2023-05-02T09:03:09.472Z,11.91
2023-05-02T09:04:09.505Z,11.86
2023-05-02T09:05:09.472Z,11.91
2023-05-02T09:06:09.528Z,12.07
2023-05-02T09:07:10.797Z,12.16
2023-05-02T09:08:09.533Z,12.14
2023-05-02T09:09:09.563Z,12.16
2023-05-02T09:10:09.584Z,12.27
2023-05-02T09:11:09.609Z,12.16
2023-05-02T09:12:09.648Z,12.19
2023-05-02T09:13:09.677Z,12.24
2023-05-02T09:14:09.713Z,12.13
2023-05-02T09:15:09.701Z,12.34
2023-05-02T09:16:09.758Z,12.24
2023-05-02T09:17:09.859Z,12.14
2023-05-02T09:18:09.820Z,12.21
2023-05-02T09:19:09.794Z,12.32
2023-05-02T09:20:09.827Z,12.29
2023-05-02T09:21:09.850Z,12.31
2023-05-02T09:22:09.864Z,12.49
2023-05-02T09:23:09.913Z,12.52
2023-05-02T09:24:09.913Z,12.53
2023-05-02T09:25:09.949Z,12.46
2023-05-02T09:26:09.958Z,12.42
2023-05-02T09:27:10.006Z,12.50
2023-05-02T09:28:10.013Z,12.57
2023-05-02T09:29:10.032Z,12.57
2023-05-02T09:30:10.082Z,12.53
2023-05-02T09:31:10.175Z,12.53
2023-05-02T09:32:10.250Z,12.49
2023-05-02T09:33:10.179Z,12.53
2023-05-02T09:34:10.150Z,12.54
2023-05-02T09:35:10.172Z,12.50
2023-05-02T09:36:10.195Z,12.53
2023-05-02T09:37:10.348Z,12.60
2023-05-02T09:38:10.240Z,12.65
2023-05-02T09:39:10.263Z,12.62
2023-05-02T09:40:10.288Z,12.62
2023-05-02T09:41:10.331Z,12.72
2023-05-02T09:42:10.340Z,12.71
2023-05-02T09:43:10.361Z,12.60
2023-05-02T09:44:10.381Z,12.59
2023-05-02T09:45:10.418Z,12.62
2023-05-02T09:46:10.601Z,12.64
2023-05-02T09:47:10.469Z,12.64
2023-05-02T09:48:10.515Z,12.50
2023-05-02T09:49:10.501Z,12.47
2023-05-02T09:50:10.554Z,12.52
2023-05-02T09:51:10.547Z,12.62
2023-05-02T09:52:10.574Z,12.60
2023-05-02T09:53:10.596Z,12.70
2023-05-02T09:54:10.616Z,12.87
2023-05-02T09:55:10.661Z,12.96
2023-05-02T09:56:10.669Z,13.03
2023-05-02T09:57:10.814Z,13.12
2023-05-02T09:58:10.713Z,13.28
2023-05-02T09:59:10.747Z,13.29
2023-05-02T10:00:10.798Z,13.42
2023-05-02T10:01:10.815Z,13.51
2023-05-02T10:02:10.809Z,13.45
2023-05-02T10:03:10.872Z,13.29
2023-05-02T10:04:10.896Z,13.17
2023-05-02T10:05:10.898Z,13.03
2023-05-02T10:06:10.934Z,13.05
2023-05-02T10:07:11.054Z,12.97
2023-05-02T10:08:10.970Z,12.79
2023-05-02T10:09:10.980Z,12.72
2023-05-02T10:10:11.004Z,12.65
2023-05-02T10:11:11.030Z,12.64
2023-05-02T10:12:11.062Z,12.68
2023-05-02T10:13:11.086Z,12.60
2023-05-02T10:14:11.309Z,12.68
2023-05-02T10:15:11.127Z,12.78
2023-05-02T10:16:11.185Z,12.68
2023-05-02T10:17:11.180Z,12.62
2023-05-02T10:18:11.263Z,12.65
2023-05-02T10:19:11.224Z,12.60
2023-05-02T10:20:11.247Z,12.46
2023-05-02T10:21:11.273Z,12.46
2023-05-02T10:22:11.291Z,12.42
2023-05-02T10:23:11.317Z,12.41
2023-05-02T10:24:11.345Z,12.39
2023-05-02T10:25:11.380Z,12.46
2023-05-02T10:26:11.390Z,12.39
2023-05-02T10:27:11.418Z,12.41
2023-05-02T10:28:11.520Z,12.46
2023-05-02T10:29:11.484Z,12.50
2023-05-02T10:30:11.488Z,12.53
2023-05-02T10:31:11.568Z,12.52
2023-05-02T10:32:11.581Z,12.67
2023-05-02T10:33:11.605Z,12.56
2023-05-02T10:34:11.596Z,12.59
2023-05-02T10:35:11.609Z,12.75
2023-05-02T10:36:11.638Z,12.86
2023-05-02T10:37:11.674Z,12.92
2023-05-02T10:38:11.690Z,13.03
2023-05-02T10:39:11.710Z,13.25
2023-05-02T10:40:11.768Z,13.29
2023-05-02T10:41:11.754Z,13.49
2023-05-02T10:42:11.791Z,13.54
2023-05-02T10:43:11.820Z,13.59
2023-05-02T10:44:11.842Z,13.57
2023-05-02T10:45:11.851Z,13.60
2023-05-02T10:46:11.925Z,13.66
2023-05-02T10:47:11.912Z,13.78
2023-05-02T10:48:11.977Z,13.73
2023-05-02T10:49:11.973Z,13.75
2023-05-02T10:50:11.970Z,13.88
2023-05-02T10:51:11.994Z,13.96
2023-05-02T10:52:12.016Z,14.07
2023-05-02T10:53:12.039Z,14.12
2023-05-02T10:54:12.066Z,13.96
2023-05-02T10:55:12.092Z,13.96
2023-05-02T10:56:12.117Z,14.02
2023-05-02T10:57:12.175Z,13.97
2023-05-02T10:58:12.169Z,13.88
2023-05-02T10:59:12.192Z,13.92
2023-05-02T11:00:12.213Z,14.00
2023-05-02T11:01:12.319Z,14.04
2023-05-02T11:02:12.292Z,13.91
2023-05-02T11:03:12.350Z,13.92
2023-05-02T11:04:12.316Z,13.92
2023-05-02T11:05:12.359Z,13.92
2023-05-02T11:06:12.435Z,14.02
2023-05-02T11:07:12.412Z,13.85
2023-05-02T11:08:12.415Z,13.96
2023-05-02T11:09:12.440Z,13.96
2023-05-02T11:10:12.487Z,14.06
2023-05-02T11:11:12.491Z,14.06
2023-05-02T11:12:12.516Z,14.09
2023-05-02T11:13:12.542Z,14.10
2023-05-02T11:14:13.582Z,14.18
2023-05-02T11:15:12.623Z,14.27
2023-05-02T11:16:12.631Z,14.17
2023-05-02T11:17:12.650Z,14.04
2023-05-02T11:18:12.952Z,14.15
2023-05-02T11:19:12.693Z,14.20
2023-05-02T11:20:12.785Z,14.06
2023-05-02T11:21:12.756Z,13.96
2023-05-02T11:22:12.770Z,14.07
2023-05-02T11:23:12.797Z,13.92
2023-05-02T11:24:12.846Z,13.78
2023-05-02T11:25:12.846Z,13.57
2023-05-02T11:26:12.871Z,13.49
2023-05-02T11:27:12.896Z,13.30
2023-05-02T11:28:12.920Z,13.20
2023-05-02T11:29:12.949Z,13.03
2023-05-02T11:30:13.010Z,13.03
2023-05-02T11:31:12.993Z,12.95
2023-05-02T11:32:13.090Z,12.93
2023-05-02T11:33:13.103Z,13.08
2023-05-02T11:34:13.066Z,13.14
2023-05-02T11:35:13.095Z,13.08
2023-05-02T11:36:13.116Z,13.04
2023-05-02T11:37:13.140Z,13.05
2023-05-02T11:38:13.160Z,13.07
2023-05-02T11:39:13.188Z,13.26
2023-05-02T11:40:13.241Z,13.17
2023-05-02T11:41:13.259Z,13.30
2023-05-02T11:42:13.261Z,13.12
2023-05-02T11:43:13.295Z,13.04
2023-05-02T11:44:13.311Z,12.95
2023-05-02T11:45:13.336Z,12.90
2023-05-02T11:46:13.402Z,12.86
2023-05-02T11:47:13.392Z,12.85
2023-05-02T11:48:13.454Z,13.03
2023-05-02T11:49:14.790Z,13.03
2023-05-02T11:50:13.466Z,13.15
2023-05-02T11:51:13.488Z,13.12
2023-05-02T11:52:13.506Z,13.12
2023-05-02T11:53:13.531Z,13.19
2023-05-02T11:54:13.556Z,13.29
2023-05-02T11:55:13.579Z,13.28
2023-05-02T11:56:13.604Z,13.33
2023-05-02T11:57:13.628Z,13.26
2023-05-02T11:58:13.658Z,13.33
2023-05-02T11:59:13.678Z,13.44
2023-05-02T12:00:13.727Z,13.54
2023-05-02T12:01:13.862Z,13.57
2023-05-02T12:02:13.794Z,13.63
2023-05-02T12:03:13.864Z,13.64
2023-05-02T12:04:13.798Z,13.73
2023-05-02T12:05:13.887Z,13.75
2023-05-02T12:06:14.153Z,13.81
2023-05-02T12:07:13.966Z,13.85
2023-05-02T12:08:13.895Z,13.95
2023-05-02T12:09:13.948Z,13.88
2023-05-02T12:10:13.960Z,14.04
2023-05-02T12:11:13.974Z,13.95
2023-05-02T12:12:13.999Z,13.96
2023-05-02T12:13:14.028Z,13.87
2023-05-02T12:14:14.055Z,13.88
2023-05-02T12:15:14.067Z,13.89
2023-05-02T12:16:14.155Z,13.82
2023-05-02T12:17:14.142Z,13.82
2023-05-02T12:18:14.154Z,13.87
2023-05-02T12:19:14.178Z,13.79
2023-05-02T12:20:14.200Z,13.67
2023-05-02T12:21:14.217Z,13.70
2023-05-02T12:22:14.245Z,13.60
2023-05-02T12:23:14.278Z,13.78
2023-05-02T12:24:14.298Z,13.99
2023-05-02T12:25:14.323Z,14.04
2023-05-02T12:26:14.342Z,13.96
2023-05-02T12:27:14.411Z,14.15
2023-05-02T12:28:14.398Z,14.21
2023-05-02T12:29:14.424Z,14.15
2023-05-02T12:30:14.450Z,14.21
2023-05-02T12:31:14.498Z,14.06
2023-05-02T12:32:14.498Z,14.07
2023-05-02T12:33:14.550Z,13.88
2023-05-02T12:34:14.547Z,14.06
2023-05-02T12:35:14.609Z,14.07
2023-05-02T12:36:14.604Z,13.95
2023-05-02T12:37:14.624Z,13.91
2023-05-02T12:38:14.648Z,13.91
2023-05-02T12:39:14.687Z,13.92
2023-05-02T12:40:14.702Z,14.02
2023-05-02T12:41:14.722Z,14.07
2023-05-02T12:42:14.748Z,13.92
2023-05-02T12:43:14.765Z,13.91
2023-05-02T12:44:14.797Z,13.96
2023-05-02T12:45:14.822Z,13.91
2023-05-02T12:46:14.843Z,13.92
2023-05-02T12:47:14.991Z,13.92
2023-05-02T12:48:14.916Z,13.82
2023-05-02T12:49:14.914Z,13.85
2023-05-02T12:50:14.940Z,14.06
2023-05-02T12:51:14.983Z,13.99
2023-05-02T12:52:14.990Z,14.18
2023-05-02T12:53:15.018Z,14.07